Time;durP1;ratioP1;P1;durP2;ratioP2;P2;SDS_P1;SDS_P2;PMS_P1;PMS_P2;Temp;Humidity;BMP_temperature;BMP_pressure;BME280_temperature;BME280_humidity;BME280_pressure;Samples;Min_cycle;Max_cycle;Signal;HPM_P1;HPM_P2
2022/04/25 00:01:17;;;;;;;13.48;8.23;;;9.10;99.90;;;;;;5104148;28;20063;-70
2022/04/25 00:03:44;;;;;;;12.82;7.90;;;9.10;99.90;;;;;;5120281;28;20087;-69
2022/04/25 00:06:10;;;;;;;13.50;9.23;;;9.10;99.90;;;;;;5135689;28;20027;-69
2022/04/25 00:08:36;;;;;;;13.07;9.50;;;9.10;99.90;;;;;;5123921;28;20046;-69
2022/04/25 00:11:02;;;;;;;12.20;8.23;;;9.10;99.90;;;;;;5113124;28;20378;-69
2022/04/25 00:13:28;;;;;;;12.57;9.23;;;9.20;99.90;;;;;;5105113;28;20050;-69
2022/04/25 00:15:54;;;;;;;15.93;9.90;;;9.10;99.90;;;;;;5106287;28;20265;-69
2022/04/25 00:18:20;;;;;;;12.73;8.77;;;9.10;99.90;;;;;;5119231;28;20027;-69
2022/04/25 00:20:46;;;;;;;13.75;9.50;;;9.10;99.90;;;;;;5128702;28;20031;-69
2022/04/25 00:23:12;;;;;;;13.85;8.95;;;9.10;99.90;;;;;;5104397;28;20175;-69
2022/04/25 00:25:38;;;;;;;16.60;9.20;;;9.10;99.90;;;;;;5133203;28;21004;-70
2022/04/25 00:28:05;;;;;;;15.02;10.00;;;9.10;99.90;;;;;;5122141;28;20093;-70
2022/04/25 00:30:31;;;;;;;14.07;9.55;;;9.10;99.90;;;;;;5124479;28;20047;-69
2022/04/25 00:32:58;;;;;;;14.60;9.13;;;9.10;99.90;;;;;;5123147;27;20035;-70
2022/04/25 00:35:24;;;;;;;14.82;8.85;;;9.10;99.90;;;;;;5130695;27;20091;-70
2022/04/25 00:37:51;;;;;;;15.18;8.25;;;9.00;99.90;;;;;;5124700;27;20035;-69
2022/04/25 00:40:22;;;;;;;15.55;9.18;;;9.00;99.90;;;;;;5130818;27;20031;-70
2022/04/25 00:42:48;;;;;;;13.82;9.30;;;9.00;99.90;;;;;;5121457;28;20032;-69
2022/04/25 00:45:15;;;;;;;13.73;9.30;;;8.90;99.90;;;;;;5141020;27;20038;-70
2022/04/25 00:47:42;;;;;;;13.55;8.63;;;9.00;99.90;;;;;;5110639;28;20038;-69
2022/04/25 00:50:09;;;;;;;15.32;9.73;;;8.90;99.90;;;;;;5136874;27;20046;-70
2022/04/25 00:52:36;;;;;;;14.65;9.65;;;8.90;99.90;;;;;;5110153;28;20245;-70
2022/04/25 00:55:04;;;;;;;12.50;8.63;;;8.90;99.90;;;;;;5136734;27;20038;-69
2022/04/25 00:57:31;;;;;;;13.13;9.13;;;8.90;99.90;;;;;;5140828;27;20099;-69
2022/04/25 00:59:58;;;;;;;12.05;9.07;;;8.90;99.90;;;;;;5114739;28;20027;-69
2022/04/25 01:02:27;;;;;;;17.17;10.05;;;8.80;99.90;;;;;;5112356;27;20023;-70
2022/04/25 01:04:56;;;;;;;15.48;9.75;;;8.80;99.90;;;;;;5118561;28;20393;-68
2022/04/25 01:07:22;;;;;;;12.63;9.15;;;8.80;99.90;;;;;;5122239;27;20107;-68
2022/04/25 01:09:48;;;;;;;16.67;10.07;;;8.80;99.90;;;;;;5130480;27;20172;-69
2022/04/25 01:12:13;;;;;;;15.23;9.25;;;8.70;99.90;;;;;;5110686;28;20273;-69
2022/04/25 01:14:39;;;;;;;16.90;9.93;;;8.70;99.90;;;;;;5126596;27;20111;-68
2022/04/25 01:17:05;;;;;;;13.27;9.35;;;8.60;99.90;;;;;;5124948;27;20088;-69
2022/04/25 01:19:32;;;;;;;15.38;9.68;;;8.60;99.90;;;;;;5129222;27;20042;-69
2022/04/25 01:22:14;;;;;;;16.13;10.10;;;8.60;99.90;;;;;;5130514;27;20244;-69
2022/04/25 01:27:24;;;;;;;15.20;9.50;;;8.50;99.90;;;;;;5110513;27;20035;-68
2022/04/25 01:29:52;;;;;;;14.70;9.93;;;8.50;99.90;;;;;;5118346;28;20075;-69
2022/04/25 01:32:19;;;;;;;12.38;8.82;;;8.50;99.90;;;;;;5107266;28;20054;-69
2022/04/25 01:34:45;;;;;;;13.32;9.55;;;8.50;99.90;;;;;;5105665;27;20023;-69
2022/04/25 01:37:13;;;;;;;14.50;9.82;;;8.60;99.90;;;;;;5125973;27;20270;-69
2022/04/25 01:39:41;;;;;;;16.15;10.52;;;8.60;99.90;;;;;;5100868;27;20160;-69
2022/04/25 01:42:08;;;;;;;15.82;9.93;;;8.60;99.90;;;;;;5129347;27;20023;-69
2022/04/25 01:44:35;;;;;;;14.40;9.10;;;8.70;99.90;;;;;;5104559;27;20036;-70
2022/04/25 01:47:02;;;;;;;14.65;9.68;;;8.70;99.90;;;;;;5120008;28;20024;-71
2022/04/25 01:49:28;;;;;;;18.48;10.60;;;8.70;99.90;;;;;;5112190;27;20041;-70
2022/04/25 01:51:55;;;;;;;14.73;10.00;;;8.70;99.90;;;;;;5106384;28;20211;-70
2022/04/25 01:54:36;;;;;;;14.02;9.52;;;8.70;99.90;;;;;;5112818;27;20218;-69
2022/04/25 01:57:05;;;;;;;15.97;9.33;;;8.80;99.90;;;;;;5104563;28;20055;-69
2022/04/25 01:59:31;;;;;;;17.50;9.30;;;8.70;99.90;;;;;;5105451;28;20313;-69
2022/04/25 02:01:56;;;;;;;14.95;10.25;;;8.70;99.90;;;;;;5105378;28;20040;-69
2022/04/25 02:04:22;;;;;;;13.73;10.23;;;8.70;99.90;;;;;;5104507;27;20027;-69
2022/04/25 02:06:49;;;;;;;12.00;9.13;;;8.80;99.90;;;;;;5125674;27;20274;-68
2022/04/25 02:09:15;;;;;;;15.43;9.68;;;8.70;99.90;;;;;;5087552;28;20065;-69
2022/04/25 02:11:41;;;;;;;12.32;8.80;;;8.80;99.90;;;;;;5138833;27;20056;-69
2022/04/25 02:14:06;;;;;;;13.02;7.88;;;8.70;99.90;;;;;;5103084;27;20281;-69
2022/04/25 02:16:32;;;;;;;15.60;9.15;;;8.80;99.90;;;;;;5135567;27;20107;-69
2022/04/25 02:18:58;;;;;;;13.93;9.60;;;8.80;99.90;;;;;;5131036;27;20046;-69
2022/04/25 02:21:24;;;;;;;12.43;8.70;;;8.80;99.90;;;;;;5127576;27;20027;-69
2022/04/25 02:23:51;;;;;;;11.25;7.95;;;8.70;99.90;;;;;;5137125;27;20271;-69
2022/04/25 02:26:16;;;;;;;13.80;8.60;;;8.80;99.90;;;;;;5128321;27;20055;-69
2022/04/25 02:28:42;;;;;;;11.52;8.73;;;8.70;99.90;;;;;;5131810;27;20027;-69
2022/04/25 02:31:08;;;;;;;17.02;8.18;;;8.70;99.90;;;;;;5100841;28;20023;-69
2022/04/25 02:33:35;;;;;;;14.07;8.70;;;8.60;99.90;;;;;;5109970;27;20035;-69
2022/04/25 02:36:05;;;;;;;12.52;8.20;;;8.60;99.90;;;;;;5134107;27;20039;-69
2022/04/25 02:38:35;;;;;;;12.65;7.93;;;8.50;99.90;;;;;;5140694;27;20148;-69
2022/04/25 02:41:08;;;;;;;13.32;8.75;;;8.50;99.90;;;;;;5139449;27;20027;-69
2022/04/25 02:43:36;;;;;;;12.98;9.15;;;8.50;99.90;;;;;;5113383;28;20042;-69
2022/04/25 02:46:03;;;;;;;16.90;9.32;;;8.50;99.90;;;;;;5121022;27;20376;-69
2022/04/25 02:48:30;;;;;;;12.90;7.57;;;8.50;99.90;;;;;;5120638;27;20055;-69
2022/04/25 02:51:27;;;;;;;13.80;9.40;;;8.40;99.90;;;;;;5104675;28;20024;-68
2022/04/25 02:53:51;;;;;;;13.32;8.75;;;8.40;99.90;;;;;;5126079;27;20032;-69
2022/04/25 02:56:17;;;;;;;11.77;9.07;;;8.40;99.90;;;;;;5140169;27;20118;-69
2022/04/25 02:58:43;;;;;;;14.23;9.07;;;8.40;99.90;;;;;;5122755;27;20043;-69
2022/04/25 03:01:09;;;;;;;13.35;9.13;;;8.30;99.90;;;;;;5113182;28;20020;-69
2022/04/25 03:03:36;;;;;;;11.18;8.02;;;8.30;99.90;;;;;;5115704;28;20341;-69
2022/04/25 03:06:04;;;;;;;15.88;10.13;;;8.30;99.90;;;;;;5120969;27;20046;-69
2022/04/25 03:08:30;;;;;;;15.95;11.05;;;8.30;99.90;;;;;;5124818;27;20310;-69
2022/04/25 03:10:56;;;;;;;14.15;10.35;;;8.30;99.90;;;;;;5126037;27;20160;-69
2022/04/25 03:13:26;;;;;;;12.88;9.82;;;8.30;99.90;;;;;;5120124;27;20039;-69
2022/04/25 03:15:52;;;;;;;13.13;9.80;;;8.30;99.90;;;;;;5131176;27;20102;-69
2022/04/25 03:18:19;;;;;;;11.50;8.70;;;8.30;99.90;;;;;;5121518;27;20298;-69
2022/04/25 03:20:48;;;;;;;13.68;8.65;;;8.50;99.90;;;;;;5116757;28;20024;-69
2022/04/25 03:23:18;;;;;;;11.13;7.78;;;8.20;99.90;;;;;;5105268;28;20023;-70
2022/04/25 03:25:45;;;;;;;12.98;8.15;;;8.20;99.90;;;;;;5106835;28;20098;-70
2022/04/25 03:28:11;;;;;;;15.18;8.98;;;8.20;99.90;;;;;;5111806;27;20027;-69
2022/04/25 03:30:37;;;;;;;13.15;8.48;;;8.20;99.90;;;;;;5124344;27;20313;-70
2022/04/25 03:33:21;;;;;;;11.90;8.02;;;8.20;99.90;;;;;;5110145;27;20180;-70
2022/04/25 03:35:55;;;;;;;13.40;8.52;;;7.50;99.90;;;;;;5117197;28;20230;-70
2022/04/25 03:38:21;;;;;;;11.68;7.50;;;8.20;99.90;;;;;;5105963;28;20042;-69
2022/04/25 03:40:47;;;;;;;12.50;8.35;;;8.10;99.90;;;;;;5119473;28;20315;-69
2022/04/25 03:43:15;;;;;;;10.93;8.77;;;8.20;99.90;;;;;;5090480;27;20034;-70
2022/04/25 03:45:41;;;;;;;11.80;8.40;;;8.20;99.90;;;;;;5139327;27;20359;-70
2022/04/25 03:48:07;;;;;;;10.57;8.50;;;8.20;99.90;;;;;;5133701;27;20020;-70
2022/04/25 03:50:33;;;;;;;11.63;9.38;;;8.20;99.90;;;;;;5137413;27;20038;-70
2022/04/25 03:53:05;;;;;;;14.15;10.60;;;8.10;99.90;;;;;;5120710;28;20043;-71
2022/04/25 03:58:15;;;;;;;13.10;8.70;;;8.10;99.90;;;;;;5116403;28;20106;-69
2022/04/25 04:00:41;;;;;;;9.13;7.25;;;8.10;99.90;;;;;;5103146;28;20031;-70
2022/04/25 04:03:07;;;;;;;16.05;9.63;;;8.10;99.90;;;;;;5137369;28;20329;-69
2022/04/25 04:05:32;;;;;;;15.45;8.38;;;8.10;99.90;;;;;;5107507;27;20043;-69
2022/04/25 04:07:58;;;;;;;10.95;7.38;;;8.10;99.90;;;;;;5123794;27;20424;-69
2022/04/25 04:10:24;;;;;;;11.82;7.38;;;8.10;99.90;;;;;;5107980;27;20078;-69
2022/04/25 04:12:49;;;;;;;11.57;8.27;;;8.10;99.90;;;;;;5124677;28;20031;-70
2022/04/25 04:15:17;;;;;;;10.20;7.18;;;8.10;99.90;;;;;;5093102;27;20317;-70
2022/04/25 04:17:43;;;;;;;12.68;8.48;;;8.10;99.90;;;;;;5107770;28;20038;-71
2022/04/25 04:20:11;;;;;;;14.60;9.65;;;8.10;99.90;;;;;;5111540;28;20034;-70
2022/04/25 04:22:37;;;;;;;17.05;9.32;;;8.10;99.90;;;;;;5106506;28;20035;-70
2022/04/25 04:25:14;;;;;;;12.70;8.25;;;8.20;99.90;;;;;;5112339;27;20217;-71
2022/04/25 04:27:41;;;;;;;10.95;7.05;;;8.10;99.90;;;;;;5107908;28;20066;-70
2022/04/25 04:30:09;;;;;;;10.00;7.57;;;8.10;99.90;;;;;;5126185;27;20046;-69
2022/04/25 04:32:35;;;;;;;15.55;8.63;;;8.20;99.90;;;;;;5105867;28;20085;-69
2022/04/25 04:35:02;;;;;;;14.00;8.68;;;8.10;99.90;;;;;;5123343;27;20035;-69
2022/04/25 04:37:33;;;;;;;12.38;8.73;;;8.10;99.90;;;;;;5118521;28;20094;-69
2022/04/25 04:42:44;;;;;;;11.73;8.70;;;8.20;99.90;;;;;;5122556;27;20059;-70
2022/04/25 04:45:14;;;;;;;11.73;8.25;;;8.20;99.90;;;;;;5089864;28;20023;-69
2022/04/25 04:47:40;;;;;;;13.57;9.63;;;8.20;99.90;;;;;;5123336;27;20035;-69
2022/04/25 04:50:14;;;;;;;12.10;8.90;;;8.20;99.90;;;;;;5118245;27;20218;-69
2022/04/25 04:52:42;;;;;;;11.13;8.70;;;8.20;99.90;;;;;;5124916;27;20051;-69
2022/04/25 04:55:09;;;;;;;17.13;10.02;;;8.20;99.90;;;;;;5123579;28;20024;-69
2022/04/25 04:57:34;;;;;;;15.68;9.60;;;8.20;99.90;;;;;;5106710;28;20054;-69
2022/04/25 05:00:00;;;;;;;12.65;8.98;;;8.30;99.90;;;;;;5114257;28;20365;-70
2022/04/25 05:02:26;;;;;;;13.50;8.98;;;8.20;99.90;;;;;;5096751;28;20047;-70
2022/04/25 05:04:52;;;;;;;12.35;8.18;;;8.30;99.90;;;;;;5141737;27;20081;-69
2022/04/25 05:07:18;;;;;;;11.85;8.57;;;8.30;99.90;;;;;;5114740;27;20057;-70
2022/04/25 05:09:43;;;;;;;13.32;7.95;;;8.20;99.90;;;;;;5107532;27;20063;-70
2022/04/25 05:12:09;;;;;;;12.15;7.97;;;8.30;99.90;;;;;;5113637;28;20265;-70
2022/04/25 05:14:35;;;;;;;11.90;7.63;;;8.20;99.90;;;;;;5121777;27;20327;-70
2022/04/25 05:17:01;;;;;;;11.23;7.50;;;8.30;99.90;;;;;;5092274;28;20214;-69
2022/04/25 05:19:26;;;;;;;9.63;7.22;;;8.20;99.90;;;;;;5128643;27;20039;-69
2022/04/25 05:21:52;;;;;;;14.68;8.23;;;8.70;99.90;;;;;;5123852;27;20038;-70
2022/04/25 05:24:17;;;;;;;10.73;7.57;;;8.20;99.90;;;;;;5124460;27;20314;-70
2022/04/25 05:26:43;;;;;;;14.70;8.23;;;8.20;99.90;;;;;;5159710;27;20259;-70
2022/04/25 05:29:36;;;;;;;15.98;9.55;;;8.30;99.90;;;;;;5114348;27;20031;-70
2022/04/25 05:32:01;;;;;;;12.07;8.93;;;8.30;99.90;;;;;;5108268;27;20032;-69
2022/04/25 05:34:26;;;;;;;10.52;8.18;;;8.30;99.90;;;;;;5122298;27;20036;-70
2022/04/25 05:36:52;;;;;;;13.93;8.77;;;8.30;99.90;;;;;;5126021;27;20031;-71
2022/04/25 05:39:18;;;;;;;13.02;9.20;;;8.30;99.90;;;;;;5089517;28;20102;-71
2022/04/25 05:41:46;;;;;;;14.82;9.02;;;8.30;99.90;;;;;;5137900;27;20063;-70
2022/04/25 05:44:12;;;;;;;12.38;8.63;;;8.30;99.90;;;;;;5109791;28;20063;-70
2022/04/25 05:46:38;;;;;;;14.75;9.45;;;8.30;99.90;;;;;;5129669;27;20039;-70
2022/04/25 05:51:58;;;;;;;14.05;9.18;;;8.30;99.90;;;;;;5135095;27;20221;-71
2022/04/25 05:54:24;;;;;;;12.63;9.20;;;8.40;99.90;;;;;;5110500;27;20030;-71
2022/04/25 05:56:50;;;;;;;16.38;9.73;;;8.40;99.90;;;;;;5142969;27;20034;-70
2022/04/25 05:59:15;;;;;;;13.02;9.35;;;8.40;99.90;;;;;;5124617;27;20031;-70
2022/04/25 06:01:41;;;;;;;13.45;9.13;;;8.40;99.90;;;;;;5097693;28;20031;-70
2022/04/25 06:04:07;;;;;;;15.57;9.60;;;8.40;99.90;;;;;;5101773;28;20068;-71
2022/04/25 06:06:35;;;;;;;12.43;8.77;;;8.50;99.90;;;;;;5115513;27;20036;-70
2022/04/25 06:09:02;;;;;;;14.38;9.98;;;8.40;99.90;;;;;;5118144;28;20039;-70
2022/04/25 06:11:28;;;;;;;13.40;8.63;;;8.50;99.90;;;;;;5122179;27;20071;-70
2022/04/25 06:13:56;;;;;;;15.55;11.07;;;8.60;99.90;;;;;;5106480;28;20046;-70
2022/04/25 06:16:22;;;;;;;13.38;9.85;;;8.60;99.90;;;;;;5138943;27;20112;-69
2022/04/25 06:18:47;;;;;;;15.52;10.07;;;8.50;99.90;;;;;;5129940;27;20026;-70
2022/04/25 06:21:13;;;;;;;13.88;9.55;;;8.50;99.90;;;;;;5124277;27;20031;-71
2022/04/25 06:23:39;;;;;;;12.30;9.73;;;8.50;99.90;;;;;;5120547;28;20037;-70
2022/04/25 06:26:04;;;;;;;15.85;10.43;;;8.50;99.90;;;;;;5118620;28;20065;-70
2022/04/25 06:28:30;;;;;;;14.13;10.50;;;8.40;99.90;;;;;;5131823;27;20038;-69
2022/04/25 06:30:56;;;;;;;14.88;11.60;;;8.40;99.90;;;;;;5109296;27;20329;-70
2022/04/25 06:33:21;;;;;;;15.00;12.02;;;8.50;99.90;;;;;;5108924;28;20031;-68
2022/04/25 06:35:49;;;;;;;15.85;11.02;;;8.40;99.90;;;;;;5105635;28;20237;-69
2022/04/25 06:38:15;;;;;;;12.90;10.98;;;8.40;99.90;;;;;;5120775;27;20122;-69
2022/04/25 06:40:42;;;;;;;11.88;9.88;;;8.30;99.90;;;;;;5127402;27;20027;-70
2022/04/25 06:43:08;;;;;;;11.88;10.40;;;8.40;99.90;;;;;;5113342;28;20034;-70
2022/04/25 06:45:34;;;;;;;13.07;9.70;;;8.40;99.90;;;;;;5113920;27;20038;-69
2022/04/25 06:48:00;;;;;;;11.30;8.48;;;8.40;99.90;;;;;;5123556;27;20040;-69
2022/04/25 06:50:26;;;;;;;13.88;7.93;;;8.50;99.90;;;;;;5113049;28;20107;-70
2022/04/25 06:52:52;;;;;;;12.02;7.68;;;8.40;99.90;;;;;;5121524;27;20046;-70
2022/04/25 06:55:19;;;;;;;15.27;12.82;;;8.40;99.90;;;;;;5118132;27;20039;-70
2022/04/25 06:57:47;;;;;;;14.50;9.57;;;8.40;99.90;;;;;;5112587;27;20054;-69
2022/04/25 07:00:17;;;;;;;13.45;10.43;;;8.40;99.90;;;;;;5108704;27;20375;-70
2022/04/25 07:02:44;;;;;;;14.68;9.32;;;8.40;99.90;;;;;;5109441;27;20257;-69
2022/04/25 07:05:10;;;;;;;14.15;11.20;;;8.40;99.90;;;;;;5141976;27;20194;-69
2022/04/25 07:07:37;;;;;;;13.02;9.00;;;8.50;99.90;;;;;;5131006;27;20031;-68
2022/04/25 07:10:03;;;;;;;16.10;10.40;;;8.50;99.90;;;;;;5128050;27;20095;-69
2022/04/25 07:12:28;;;;;;;14.48;10.25;;;8.50;99.90;;;;;;5140538;27;20118;-69
2022/04/25 07:14:54;;;;;;;14.52;9.90;;;8.50;99.90;;;;;;5141277;27;20031;-69
2022/04/25 07:17:20;;;;;;;43.35;27.17;;;8.50;99.90;;;;;;5134654;27;20356;-69
2022/04/25 07:19:46;;;;;;;42.70;26.30;;;8.50;99.90;;;;;;5134036;27;20400;-69
2022/04/25 07:30:24;;;;;;;15.52;9.18;;;8.60;99.90;;;;;;5123287;27;20076;-71
2022/04/25 07:32:50;;;;;;;15.27;9.90;;;8.60;99.90;;;;;;5108427;28;20027;-70
2022/04/25 07:35:16;;;;;;;13.65;9.55;;;8.70;99.90;;;;;;5132466;27;20041;-69
2022/04/25 07:37:42;;;;;;;13.68;8.45;;;8.70;99.90;;;;;;5123324;27;20040;-70
2022/04/25 07:40:09;;;;;;;11.20;9.10;;;8.90;99.90;;;;;;5122727;27;20077;-71
2022/04/25 07:42:39;;;;;;;12.15;8.20;;;8.80;99.90;;;;;;5108786;27;20271;-70
2022/04/25 07:45:06;;;;;;;10.50;7.32;;;8.90;99.90;;;;;;5108395;27;20039;-69
2022/04/25 07:47:33;;;;;;;11.13;7.88;;;8.90;99.90;;;;;;5094254;28;20074;-71
2022/04/25 07:49:59;;;;;;;9.93;7.40;;;8.90;99.90;;;;;;5115781;28;20402;-68
2022/04/25 07:52:25;;;;;;;9.50;6.95;;;9.00;99.90;;;;;;5132095;27;20043;-70
2022/04/25 07:54:55;;;;;;;9.60;6.53;;;9.00;99.90;;;;;;5096606;28;20035;-73
2022/04/25 07:57:20;;;;;;;11.85;7.63;;;9.00;99.90;;;;;;5116073;28;20039;-70
2022/04/25 07:59:47;;;;;;;9.48;7.30;;;8.90;99.90;;;;;;5121554;28;20103;-71
2022/04/25 08:02:13;;;;;;;12.68;7.50;;;9.00;99.90;;;;;;5119388;28;20035;-71
2022/04/25 08:04:39;;;;;;;9.30;7.25;;;9.00;99.90;;;;;;5135241;27;20040;-70
2022/04/25 08:07:05;;;;;;;13.73;8.05;;;9.00;99.90;;;;;;5134311;28;20061;-69
2022/04/25 08:09:31;;;;;;;12.35;8.25;;;8.90;99.90;;;;;;5119320;28;20362;-70
2022/04/25 08:17:59;;;;;;;9.73;5.63;;;8.70;99.90;;;;;;5109723;27;20081;-70
2022/04/25 08:20:29;;;;;;;8.93;4.90;;;8.70;99.90;;;;;;5120300;27;20323;-66
2022/04/25 08:22:57;;;;;;;9.50;5.60;;;8.80;99.90;;;;;;5126218;28;20043;-70
2022/04/25 08:25:23;;;;;;;8.73;5.32;;;8.90;99.90;;;;;;5136299;28;20039;-70
2022/04/25 08:27:49;;;;;;;8.82;5.32;;;9.00;99.90;;;;;;5118719;28;20043;-70
2022/04/25 08:30:15;;;;;;;7.95;5.10;;;9.10;99.90;;;;;;5116368;27;20039;-70
2022/04/25 08:32:40;;;;;;;11.93;5.35;;;9.20;99.90;;;;;;5093683;28;20106;-70
2022/04/25 08:35:08;;;;;;;7.65;4.68;;;9.40;99.90;;;;;;5119965;28;20046;-70
2022/04/25 08:37:34;;;;;;;7.00;4.45;;;9.20;99.90;;;;;;5129590;28;20039;-70
2022/04/25 08:40:00;;;;;;;6.43;4.88;;;9.10;99.90;;;;;;5104106;28;20268;-71
2022/04/25 08:42:25;;;;;;;7.32;5.07;;;9.20;99.90;;;;;;5115040;28;20027;-71
2022/04/25 08:44:53;;;;;;;8.02;4.95;;;9.00;99.90;;;;;;5103975;28;20031;-70
2022/04/25 08:47:20;;;;;;;11.55;5.20;;;9.20;99.90;;;;;;5116164;28;20389;-71
2022/04/25 08:49:46;;;;;;;7.95;5.30;;;9.40;99.90;;;;;;5107121;28;20043;-71
2022/04/25 08:52:12;;;;;;;8.23;4.78;;;9.30;99.90;;;;;;5091688;28;20251;-71
2022/04/25 08:54:38;;;;;;;9.48;4.97;;;9.40;99.90;;;;;;5119224;27;20346;-71
2022/04/25 08:57:05;;;;;;;8.77;5.63;;;9.30;99.90;;;;;;5105548;27;20370;-66
2022/04/25 08:59:32;;;;;;;8.00;5.38;;;9.30;99.90;;;;;;5124110;27;20088;-71
2022/04/25 09:01:58;;;;;;;10.20;5.63;;;9.40;99.90;;;;;;5119433;27;20043;-70
2022/04/25 09:04:24;;;;;;;6.82;4.88;;;9.60;99.90;;;;;;5072574;27;20066;-71
2022/04/25 09:06:51;;;;;;;8.85;5.32;;;9.80;99.90;;;;;;5136394;27;20051;-71
2022/04/25 09:09:18;;;;;;;7.15;4.90;;;9.70;99.90;;;;;;5121462;27;20094;-71
2022/04/25 09:14:31;;;;;;;8.07;4.85;;;9.60;99.90;;;;;;5104771;28;20104;-70
2022/04/25 09:16:58;;;;;;;6.15;4.70;;;9.60;99.90;;;;;;5101944;28;20043;-70
2022/04/25 09:19:25;;;;;;;6.97;4.43;;;9.60;99.90;;;;;;5118700;28;20099;-71
2022/04/25 09:21:51;;;;;;;9.40;5.07;;;9.50;99.90;;;;;;5121280;27;20211;-70
2022/04/25 09:24:25;;;;;;;6.75;4.22;;;9.60;99.90;;;;;;5096774;28;20299;-70
2022/04/25 09:26:53;;;;;;;6.05;3.88;;;9.80;99.90;;;;;;5118524;28;20039;-70
2022/04/25 09:29:26;;;;;;;5.47;4.38;;;10.10;99.90;;;;;;5118613;27;20054;-70
2022/04/25 09:31:52;;;;;;;7.18;4.35;;;10.00;99.90;;;;;;5112206;28;20054;-70
2022/04/25 09:34:59;;;;;;;7.05;3.78;;;10.40;99.90;;;;;;5130851;27;20035;-70
2022/04/25 09:37:06;;;;;;;6.97;4.20;;;10.50;99.90;;;;;;5139330;27;20385;-70
2022/04/25 09:39:32;;;;;;;6.65;3.78;;;10.30;99.90;;;;;;5104373;28;20098;-70
2022/04/25 09:41:58;;;;;;;8.82;4.28;;;10.70;99.90;;;;;;5129973;27;20333;-71
2022/04/25 09:44:23;;;;;;;14.93;9.68;;;10.50;99.90;;;;;;5138721;27;20043;-70
2022/04/25 09:46:49;;;;;;;9.20;5.70;;;10.80;99.90;;;;;;5121366;27;20128;-70
2022/04/25 09:49:22;;;;;;;5.75;4.00;;;11.20;99.90;;;;;;5109256;28;20235;-70
2022/04/25 09:52:04;;;;;;;6.93;4.32;;;11.30;99.90;;;;;;5118838;27;20069;-71
2022/04/25 09:54:30;;;;;;;8.43;3.70;;;11.40;99.90;;;;;;5118137;28;20066;-71
2022/04/25 09:56:56;;;;;;;5.65;3.83;;;11.40;99.90;;;;;;5100628;28;20321;-70
2022/04/25 09:59:22;;;;;;;6.78;3.38;;;11.30;99.90;;;;;;5117956;28;20381;-70
2022/04/25 10:02:04;;;;;;;5.40;3.40;;;11.20;99.90;;;;;;5118313;27;20110;-70
2022/04/25 10:04:38;;;;;;;7.05;3.50;;;11.50;99.90;;;;;;5135767;27;20031;-70
2022/04/25 10:07:26;;;;;;;6.90;4.05;;;11.60;99.90;;;;;;5138797;27;20289;-70
2022/04/25 10:09:53;;;;;;;3.97;3.00;;;11.60;99.90;;;;;;5125313;27;20078;-70
2022/04/25 10:12:20;;;;;;;5.22;3.47;;;11.60;99.90;;;;;;5123969;27;20050;-70
2022/04/25 10:14:47;;;;;;;5.05;3.03;;;11.60;99.90;;;;;;5138548;27;20371;-70
2022/04/25 10:17:15;;;;;;;7.38;3.55;;;11.40;99.90;;;;;;5121898;27;20114;-70
2022/04/25 10:19:43;;;;;;;6.65;4.28;;;11.60;99.90;;;;;;5114203;28;20036;-70
2022/04/25 10:22:10;;;;;;;4.95;3.80;;;11.60;99.90;;;;;;5118548;27;20111;-70
2022/04/25 10:24:37;;;;;;;5.35;3.78;;;11.60;99.90;;;;;;5135472;27;20119;-70
2022/04/25 10:27:13;;;;;;;5.22;3.42;;;11.60;99.90;;;;;;5104310;27;20043;-71
2022/04/25 10:29:44;;;;;;;4.97;3.72;;;11.60;99.90;;;;;;5117576;28;20076;-71
2022/04/25 10:32:11;;;;;;;7.93;4.00;;;11.90;99.90;;;;;;5116880;27;20074;-71
2022/04/25 10:34:59;;;;;;;4.55;3.40;;;11.90;99.90;;;;;;5118077;27;20039;-70
2022/04/25 10:37:29;;;;;;;7.78;3.90;;;11.90;99.90;;;;;;5117701;28;20256;-69
2022/04/25 10:40:04;;;;;;;4.88;4.13;;;11.80;99.90;;;;;;5100390;27;20038;-69
2022/04/25 10:45:14;;;;;;;5.18;3.28;;;12.30;99.90;;;;;;5124142;27;20034;-70
2022/04/25 10:47:58;;;;;;;4.18;3.25;;;12.40;99.90;;;;;;5138330;27;20245;-71
2022/04/25 10:50:26;;;;;;;4.85;3.75;;;12.30;99.90;;;;;;5118289;27;20046;-71
2022/04/25 10:52:56;;;;;;;5.93;3.97;;;12.60;99.90;;;;;;5120059;27;20044;-71
2022/04/25 10:55:33;;;;;;;5.18;4.30;;;12.50;99.90;;;;;;5119476;27;20047;-70
2022/04/25 10:58:02;;;;;;;4.55;3.45;;;12.60;99.90;;;;;;5117442;28;20031;-70
2022/04/25 11:00:37;;;;;;;5.43;3.90;;;12.80;99.90;;;;;;5116857;27;20230;-70
2022/04/25 11:03:05;;;;;;;5.00;3.53;;;12.80;99.90;;;;;;5116900;28;20130;-71
2022/04/25 11:05:31;;;;;;;5.55;3.70;;;12.80;99.90;;;;;;5119363;27;20069;-71
2022/04/25 11:08:31;;;;;;;6.55;3.92;;;12.60;99.90;;;;;;5139609;27;20126;-71
2022/04/25 11:10:56;;;;;;;7.28;3.47;;;12.90;99.90;;;;;;5106241;27;20125;-70
2022/04/25 11:13:26;;;;;;;4.78;3.67;;;13.10;99.90;;;;;;5121235;27;20103;-70
2022/04/25 11:15:56;;;;;;;6.28;3.80;;;13.20;99.90;;;;;;5119379;27;20035;-70
2022/04/25 11:18:44;;;;;;;;;;;;;;;;;;;;;
2022/04/25 11:21:17;;;;;;;;;;;13.40;99.90;;;;;;5137323;27;20118;-69
2022/04/25 11:23:52;;;;;;;5.40;3.45;;;13.20;99.90;;;;;;5114728;27;19919;-70
2022/04/25 11:26:23;;;;;;;4.60;3.35;;;13.20;99.90;;;;;;5129404;27;20046;-70
2022/04/25 11:28:55;;;;;;;5.00;3.47;;;13.10;99.90;;;;;;5103692;27;20233;-69
2022/04/25 11:31:22;;;;;;;5.18;3.63;;;13.10;99.90;;;;;;5104774;27;20042;-69
2022/04/25 11:33:53;;;;;;;4.65;4.07;;;13.30;99.90;;;;;;5120799;27;20114;-69
2022/04/25 11:36:20;;;;;;;5.88;3.53;;;13.30;99.90;;;;;;5134419;27;20035;-69
2022/04/25 11:41:36;;;;;;;5.55;3.83;;;13.30;99.90;;;;;;5142046;27;20054;-70
2022/04/25 11:44:04;;;;;;;4.20;3.38;;;13.20;99.90;;;;;;5122540;27;20344;-69
2022/04/25 11:46:37;;;;;;;3.97;2.80;;;13.10;99.90;;;;;;5133340;27;20038;-70
2022/04/25 11:49:04;;;;;;;4.43;3.20;;;13.20;99.90;;;;;;5141675;27;20034;-69
2022/04/25 11:51:32;;;;;;;4.88;3.38;;;13.20;99.90;;;;;;5124455;27;20252;-69
2022/04/25 11:54:01;;;;;;;3.95;3.40;;;13.10;99.90;;;;;;5127058;27;20393;-69
2022/04/25 11:56:28;;;;;;;5.05;3.50;;;13.10;99.90;;;;;;5112444;27;20045;-69
2022/04/25 11:58:55;;;;;;;7.90;3.95;;;13.20;99.90;;;;;;5139368;27;20087;-69
2022/04/25 12:01:39;;;;;;;4.60;3.53;;;13.10;99.90;;;;;;5124451;27;20217;-69
2022/04/25 12:04:23;;;;;;;4.97;3.78;;;13.00;99.90;;;;;;5130142;27;20276;-69
2022/04/25 12:07:00;;;;;;;11.60;3.80;;;13.20;99.90;;;;;;5138146;27;20233;-69
2022/04/25 12:17:49;;;;;;;5.20;4.03;;;13.30;99.90;;;;;;5120513;27;20057;-69
2022/04/25 12:20:17;;;;;;;3.92;3.33;;;13.30;99.90;;;;;;5118772;28;20271;-69
2022/04/25 12:22:59;;;;;;;5.03;4.25;;;13.20;99.90;;;;;;5132294;27;20034;-69
2022/04/25 12:25:29;;;;;;;5.53;4.40;;;13.10;99.90;;;;;;5141748;27;20337;-69
2022/04/25 12:28:13;;;;;;;7.43;4.28;;;12.90;99.90;;;;;;5108135;27;20087;-69
2022/04/25 12:30:56;;;;;;;7.50;4.88;;;12.80;99.90;;;;;;5125071;27;20118;-69
2022/04/25 12:33:23;;;;;;;6.88;4.57;;;12.80;99.90;;;;;;5124831;27;20042;-70
2022/04/25 12:36:06;;;;;;;7.63;4.78;;;12.80;99.90;;;;;;5107439;27;20318;-70
2022/04/25 12:38:38;;;;;;;5.05;4.32;;;12.70;99.90;;;;;;5111406;27;20035;-69
2022/04/25 12:41:05;;;;;;;5.78;4.88;;;12.60;99.90;;;;;;5107574;27;20064;-70
2022/04/25 12:44:01;;;;;;;6.50;4.43;;;12.60;99.90;;;;;;5124899;27;20031;-69
2022/04/25 12:46:40;;;;;;;6.10;4.88;;;12.60;99.90;;;;;;5090720;27;20114;-70
2022/04/25 12:49:12;;;;;;;4.32;3.90;;;12.70;99.90;;;;;;5136520;27;20097;-69
2022/04/25 12:51:42;;;;;;;6.97;5.20;;;12.70;99.90;;;;;;5145485;27;20045;-70
2022/04/25 12:54:30;;;;;;;8.70;4.97;;;12.70;99.90;;;;;;5121905;27;20049;-70
2022/04/25 12:57:16;;;;;;;5.13;4.43;;;12.80;99.90;;;;;;5107074;27;20341;-70
2022/04/25 12:59:46;;;;;;;7.97;5.00;;;12.80;99.90;;;;;;5117733;27;20027;-69
2022/04/25 13:02:17;;;;;;;6.18;4.97;;;12.90;99.90;;;;;;5113517;27;20031;-71
2022/04/25 13:04:57;;;;;;;5.75;4.50;;;13.10;99.90;;;;;;5108050;27;20333;-70
2022/04/25 13:07:28;;;;;;;7.03;4.88;;;13.20;99.90;;;;;;5124549;27;20334;-70
2022/04/25 13:09:56;;;;;;;7.10;4.50;;;13.10;99.90;;;;;;5132450;27;20123;-69
2022/04/25 13:12:33;;;;;;;7.38;4.82;;;13.10;99.90;;;;;;5126352;27;20315;-70
2022/04/25 13:15:09;;;;;;;6.53;4.68;;;13.20;99.90;;;;;;5144750;27;20065;-69
2022/04/25 13:17:36;;;;;;;6.10;4.93;;;13.80;99.90;;;;;;5144607;27;20083;-70
2022/04/25 13:20:04;;;;;;;6.22;4.90;;;13.90;99.90;;;;;;5132000;27;20039;-71
2022/04/25 13:22:29;;;;;;;7.22;5.05;;;13.70;99.90;;;;;;5129275;27;20042;-70
2022/04/25 13:24:55;;;;;;;6.25;5.15;;;13.70;99.90;;;;;;5110146;27;20238;-70
2022/04/25 13:27:22;;;;;;;5.80;4.63;;;13.60;99.90;;;;;;5144298;27;20088;-70
2022/04/25 13:29:48;;;;;;;7.00;5.63;;;13.30;99.90;;;;;;5107142;27;20035;-70
2022/04/25 13:32:14;;;;;;;8.55;5.82;;;13.10;99.90;;;;;;5106604;27;20043;-70
2022/04/25 13:34:40;;;;;;;8.30;5.82;;;13.10;99.90;;;;;;5123082;27;20103;-69
2022/04/25 13:37:06;;;;;;;6.68;5.30;;;13.10;99.90;;;;;;5123279;27;20396;-69